createdAt,value
2018-06-13T00:00:55.322Z,14.00
2018-06-13T00:03:41.364Z,9.00
2018-06-13T00:06:21.521Z,9.50
2018-06-13T00:08:54.274Z,12.50
2018-06-13T00:11:27.773Z,11.50
2018-06-13T00:14:02.006Z,12.25
2018-06-13T00:16:34.020Z,12.00
2018-06-13T00:19:08.609Z,13.00
2018-06-13T00:21:40.461Z,14.75
2018-06-13T00:24:13.540Z,12.00
2018-06-13T00:26:45.605Z,11.75
2018-06-13T00:29:17.899Z,11.00
2018-06-13T00:31:50.388Z,14.75
2018-06-13T00:34:21.395Z,14.25
2018-06-13T00:36:53.654Z,13.75
2018-06-13T00:39:25.061Z,13.50
2018-06-13T00:41:56.676Z,15.25
2018-06-13T00:44:30.069Z,12.25
2018-06-13T00:47:01.326Z,14.75
2018-06-13T00:49:33.120Z,15.50
2018-06-13T00:52:07.390Z,17.75
2018-06-13T00:54:39.543Z,11.75
2018-06-13T00:57:11.152Z,12.75
2018-06-13T00:59:42.301Z,13.50
2018-06-13T01:02:15.826Z,14.00
2018-06-13T01:04:46.575Z,13.50
2018-06-13T01:07:17.879Z,12.00
2018-06-13T01:09:49.039Z,13.00
2018-06-13T01:12:19.592Z,14.00
2018-06-13T01:14:50.769Z,13.75
2018-06-13T01:17:25.631Z,12.75
2018-06-13T01:20:00.394Z,11.50
2018-06-13T01:22:32.260Z,11.25
2018-06-13T01:27:59.090Z,9.50
2018-06-13T01:30:30.645Z,10.75
2018-06-13T01:33:01.104Z,10.75
2018-06-13T01:35:31.447Z,11.25
2018-06-13T01:38:02.627Z,10.50
2018-06-13T01:40:34.248Z,9.00
2018-06-13T01:43:09.519Z,9.00
2018-06-13T01:45:41.308Z,9.75
2018-06-13T01:48:15.034Z,8.50
2018-06-13T01:50:58.660Z,9.00
2018-06-13T01:53:30.148Z,9.50
2018-06-13T01:56:01.314Z,8.75
2018-06-13T01:58:32.618Z,9.50
2018-06-13T02:01:03.212Z,11.50
2018-06-13T02:03:33.822Z,9.00
2018-06-13T02:06:05.054Z,12.75
2018-06-13T02:08:35.776Z,9.25
2018-06-13T02:11:07.425Z,11.75
2018-06-13T02:13:38.031Z,9.50
2018-06-13T02:16:08.854Z,9.00
2018-06-13T02:18:39.378Z,11.75
2018-06-13T02:23:58.173Z,11.50
2018-06-13T02:26:29.388Z,9.00
2018-06-13T02:28:59.997Z,9.00
2018-06-13T02:31:30.695Z,9.25
2018-06-13T02:34:01.325Z,10.00
2018-06-13T02:36:35.212Z,10.25
2018-06-13T02:39:10.277Z,11.50
2018-06-13T02:41:42.168Z,9.75
2018-06-13T02:44:14.488Z,9.25
2018-06-13T02:46:45.269Z,8.25
2018-06-13T02:49:15.767Z,9.75
2018-06-13T02:51:46.368Z,11.50
2018-06-13T02:54:20.634Z,10.25
2018-06-13T02:56:52.399Z,11.75
2018-06-13T02:59:22.989Z,8.00
2018-06-13T03:01:54.435Z,8.50
2018-06-13T03:04:28.008Z,10.00
2018-06-13T03:06:59.774Z,8.75
2018-06-13T03:09:33.698Z,10.50
2018-06-13T03:12:06.078Z,12.75
2018-06-13T03:14:37.232Z,9.25
2018-06-13T03:17:08.692Z,14.00
2018-06-13T03:19:39.683Z,8.75
2018-06-13T03:22:18.414Z,11.50
2018-06-13T03:24:48.894Z,11.75
2018-06-13T03:27:24.358Z,9.50
2018-06-13T03:29:54.912Z,11.75
2018-06-13T03:32:25.766Z,9.00
2018-06-13T03:34:57.487Z,8.75
2018-06-13T03:37:29.110Z,10.00
2018-06-13T03:40:00.603Z,10.00
2018-06-13T03:42:31.323Z,7.75
2018-06-13T03:45:05.752Z,8.00
2018-06-13T03:47:36.881Z,11.00
2018-06-13T03:50:07.612Z,10.00
2018-06-13T03:52:38.021Z,7.00
2018-06-13T03:55:08.993Z,8.00
2018-06-13T03:57:39.653Z,8.00
2018-06-13T04:02:45.861Z,8.00
2018-06-13T04:05:17.167Z,9.25
2018-06-13T04:07:47.644Z,6.75
2018-06-13T04:10:19.824Z,11.75
2018-06-13T04:12:50.941Z,7.50
2018-06-13T04:15:30.342Z,8.00
2018-06-13T04:18:13.077Z,9.00
2018-06-13T04:20:45.166Z,9.00
2018-06-13T04:23:16.375Z,10.50
2018-06-13T04:25:48.937Z,11.75
2018-06-13T04:28:19.555Z,10.00
2018-06-13T04:30:50.341Z,12.50
2018-06-13T04:33:23.807Z,10.50
2018-06-13T04:35:54.897Z,10.75
2018-06-13T04:38:26.379Z,10.00
2018-06-13T04:40:58.353Z,12.00
2018-06-13T04:43:28.873Z,8.75
2018-06-13T04:46:01.747Z,7.00
2018-06-13T04:48:35.717Z,7.25
2018-06-13T04:51:07.317Z,9.00
2018-06-13T04:53:38.150Z,8.50
2018-06-13T04:56:08.663Z,13.00
2018-06-13T04:58:41.508Z,10.75
2018-06-13T05:01:14.031Z,9.25
2018-06-13T05:03:47.291Z,11.50
2018-06-13T05:06:21.399Z,9.25
2018-06-13T05:08:53.237Z,11.00
2018-06-13T05:11:26.885Z,10.00
2018-06-13T05:13:57.339Z,11.50
2018-06-13T05:16:29.206Z,12.25
2018-06-13T05:18:59.829Z,13.50
2018-06-13T05:21:31.179Z,14.00
2018-06-13T05:26:37.544Z,10.00
2018-06-13T05:29:08.711Z,13.00
2018-06-13T05:31:42.044Z,15.75
2018-06-13T05:34:13.697Z,17.25
2018-06-13T05:36:45.429Z,15.25
2018-06-13T05:39:17.734Z,14.00
2018-06-13T05:41:49.036Z,16.00
2018-06-13T05:44:20.078Z,14.25
2018-06-13T05:46:50.731Z,17.00
2018-06-13T05:49:21.458Z,14.75
2018-06-13T05:51:52.613Z,11.50
2018-06-13T05:54:24.382Z,11.25
2018-06-13T05:56:54.791Z,13.00
2018-06-13T05:59:26.075Z,12.25
2018-06-13T06:01:57.681Z,15.25
2018-06-13T06:04:31.556Z,10.00
2018-06-13T06:07:03.322Z,13.00
2018-06-13T06:09:36.652Z,12.75
2018-06-13T06:12:07.354Z,10.00
2018-06-13T06:14:37.585Z,12.00
2018-06-13T06:17:11.842Z,13.00
2018-06-13T06:19:43.759Z,14.00
2018-06-13T06:22:14.662Z,13.75
2018-06-13T06:24:53.674Z,11.00
2018-06-13T06:27:26.381Z,10.25
2018-06-13T06:29:59.735Z,15.50
2018-06-13T06:32:34.678Z,16.50
2018-06-13T06:35:07.353Z,14.50
2018-06-13T06:37:39.231Z,9.25
2018-06-13T06:40:09.774Z,10.50
2018-06-13T06:42:41.702Z,12.50
2018-06-13T06:45:17.389Z,14.00
2018-06-13T06:47:50.572Z,14.75
2018-06-13T06:50:22.975Z,13.50
2018-06-13T06:53:01.133Z,17.50
2018-06-13T06:55:32.720Z,16.00
2018-06-13T06:58:09.041Z,15.00
2018-06-13T07:00:40.281Z,15.25
2018-06-13T07:03:11.516Z,14.75
2018-06-13T07:05:46.934Z,12.00
2018-06-13T07:08:20.633Z,11.25
2018-06-13T07:10:52.657Z,14.50
2018-06-13T07:13:27.083Z,13.25
2018-06-13T07:16:01.654Z,15.25
2018-06-13T07:18:34.073Z,16.50
2018-06-13T07:21:05.449Z,14.00
2018-06-13T07:23:37.712Z,18.00
2018-06-13T07:26:10.380Z,16.25
2018-06-13T07:28:43.156Z,17.50
2018-06-13T07:31:13.913Z,16.25
2018-06-13T08:15:52.503Z,10.00
2018-06-13T08:18:24.128Z,8.25
2018-06-13T08:20:57.310Z,9.75
2018-06-13T08:23:31.818Z,12.00
2018-06-13T08:26:06.350Z,12.25
2018-06-13T08:28:45.930Z,12.25
2018-06-13T08:31:24.368Z,10.25
2018-06-13T08:33:56.378Z,8.50
2018-06-13T08:36:27.457Z,9.50
2018-06-13T08:39:00.657Z,7.50
2018-06-13T08:41:33.115Z,8.75
2018-06-13T08:46:41.274Z,10.00
2018-06-13T08:49:14.044Z,9.75
2018-06-13T08:51:46.880Z,9.75
2018-06-13T08:54:18.910Z,10.50
2018-06-13T08:57:00.409Z,11.25
2018-06-13T08:59:31.607Z,8.00
2018-06-13T09:02:03.388Z,9.25
2018-06-13T09:04:35.537Z,10.00
2018-06-13T09:07:06.513Z,9.75
2018-06-13T09:09:38.943Z,10.75
2018-06-13T09:12:17.158Z,8.25
2018-06-13T09:14:53.378Z,11.00
2018-06-13T09:17:27.533Z,10.00
2018-06-13T09:19:57.834Z,9.00
2018-06-13T09:22:34.371Z,9.25
2018-06-13T09:25:05.532Z,11.00
2018-06-13T09:27:37.292Z,8.00
2018-06-13T09:30:09.587Z,7.75
2018-06-13T09:32:44.283Z,8.50
2018-06-13T09:35:17.931Z,9.25
2018-06-13T09:37:50.065Z,8.75
2018-06-13T09:40:23.634Z,8.25
2018-06-13T09:42:55.209Z,11.00
2018-06-13T09:45:26.332Z,8.75
2018-06-13T09:47:56.777Z,9.00
2018-06-13T09:50:30.390Z,9.50
2018-06-13T09:53:01.771Z,10.50
2018-06-13T09:55:47.638Z,12.00
2018-06-13T09:58:18.678Z,10.25
2018-06-13T10:01:07.060Z,9.00
2018-06-13T10:03:39.755Z,9.00
2018-06-13T10:06:11.911Z,9.00
2018-06-13T10:08:42.423Z,9.25
2018-06-13T10:11:15.192Z,10.00
2018-06-13T10:13:54.720Z,7.50
2018-06-13T10:16:38.396Z,9.75
2018-06-13T10:19:15.431Z,7.50
2018-06-13T10:21:46.627Z,6.00
2018-06-13T10:24:17.024Z,5.75
2018-06-13T10:26:49.531Z,5.25
2018-06-13T10:29:24.646Z,5.50
2018-06-13T10:31:58.098Z,6.00
2018-06-13T10:34:28.512Z,7.50
2018-06-13T10:37:02.660Z,7.00
2018-06-13T10:39:36.036Z,4.75
2018-06-13T10:42:07.109Z,6.00
2018-06-13T10:44:39.493Z,6.00
2018-06-13T10:47:11.318Z,5.25
2018-06-13T10:49:46.387Z,6.00
2018-06-13T10:52:18.365Z,6.25
2018-06-13T10:54:51.411Z,5.00
2018-06-13T10:57:27.477Z,6.00
2018-06-13T11:05:03.434Z,4.25
2018-06-13T11:07:33.725Z,6.50
2018-06-13T11:10:12.632Z,5.75
2018-06-13T11:12:43.523Z,5.25
2018-06-13T11:15:19.301Z,5.25
2018-06-13T11:17:57.069Z,6.50
2018-06-13T11:20:31.495Z,5.00
2018-06-13T11:23:15.844Z,7.75
2018-06-13T11:26:02.483Z,7.50
2018-06-13T11:28:42.524Z,7.75
2018-06-13T11:31:14.226Z,9.75
2018-06-13T11:33:47.721Z,9.00
2018-06-13T11:36:19.928Z,5.00
2018-06-13T11:38:51.943Z,6.00
2018-06-13T11:41:25.993Z,5.00
2018-06-13T11:43:56.702Z,6.00
2018-06-13T11:46:29.311Z,5.00
2018-06-13T11:49:01.153Z,5.25
2018-06-13T11:51:32.308Z,7.25
2018-06-13T11:54:11.469Z,8.25
2018-06-13T11:56:44.250Z,5.00
2018-06-13T11:59:26.547Z,5.00
2018-06-13T12:02:06.218Z,5.50
2018-06-13T12:04:38.782Z,5.75
2018-06-13T12:07:11.498Z,4.75
2018-06-13T12:09:47.828Z,6.00
2018-06-13T12:18:28.227Z,5.00
2018-06-13T12:21:02.099Z,6.00
2018-06-13T12:23:33.774Z,5.50
2018-06-13T12:26:10.297Z,5.50
2018-06-13T12:28:44.553Z,6.00
2018-06-13T12:31:17.662Z,6.00
2018-06-13T12:33:53.316Z,6.25
2018-06-13T12:36:28.556Z,6.00
2018-06-13T12:39:18.268Z,6.25
2018-06-13T12:42:00.317Z,7.50
2018-06-13T12:44:37.719Z,6.00
2018-06-13T12:50:22.811Z,6.00
2018-06-13T12:53:10.579Z,7.75
2018-06-13T12:55:46.635Z,8.00
2018-06-13T12:58:36.484Z,7.00
2018-06-13T13:01:11.273Z,6.00
2018-06-13T13:03:46.937Z,6.00
2018-06-13T13:13:30.497Z,6.00
2018-06-13T13:16:16.347Z,6.75
2018-06-13T13:18:52.360Z,7.00
2018-06-13T13:21:29.327Z,6.00
2018-06-13T13:24:04.647Z,6.00
2018-06-13T13:26:40.250Z,7.75
2018-06-13T13:29:30.422Z,6.00
2018-06-13T13:32:02.562Z,8.00
2018-06-13T13:34:38.626Z,6.00
2018-06-13T13:37:11.697Z,4.75
2018-06-13T13:43:17.747Z,5.50
2018-06-13T13:45:50.376Z,7.25
2018-06-13T13:48:26.721Z,7.50
2018-06-13T13:50:59.250Z,6.50
2018-06-13T13:53:31.285Z,5.00
2018-06-13T13:56:08.985Z,6.00
2018-06-13T13:58:42.855Z,5.00
2018-06-13T14:01:17.575Z,7.00
2018-06-13T14:03:53.241Z,6.00
2018-06-13T14:06:35.085Z,7.00
2018-06-13T14:09:10.454Z,7.00
2018-06-13T14:11:42.084Z,6.00
2018-06-13T14:14:14.163Z,6.00
2018-06-13T14:16:46.433Z,7.75
2018-06-13T14:19:21.007Z,6.00
2018-06-13T14:21:54.686Z,6.50
2018-06-13T14:24:26.323Z,5.00
2018-06-13T14:26:59.216Z,6.00
2018-06-13T14:29:32.372Z,6.00
2018-06-13T14:32:08.234Z,5.75
2018-06-13T14:34:45.346Z,6.00
2018-06-13T14:37:18.403Z,6.00
2018-06-13T14:39:50.673Z,6.00
2018-06-13T14:42:27.387Z,7.00
2018-06-13T14:45:03.847Z,5.00
2018-06-13T14:47:40.084Z,7.00
2018-06-13T14:50:14.159Z,7.00
2018-06-13T14:55:31.897Z,6.50
2018-06-13T15:01:12.300Z,5.25
2018-06-13T15:04:07.711Z,4.50
2018-06-13T15:06:46.470Z,6.00
2018-06-13T15:09:18.412Z,6.00
2018-06-13T15:11:52.559Z,6.00
2018-06-13T15:14:24.901Z,6.50
2018-06-13T15:17:01.487Z,6.00
2018-06-13T15:19:32.043Z,6.00
2018-06-13T15:22:11.334Z,6.00
2018-06-13T15:24:44.632Z,6.00
2018-06-13T15:27:21.778Z,7.25
2018-06-13T15:29:55.263Z,6.00
2018-06-13T15:32:30.683Z,4.00
2018-06-13T15:35:05.496Z,4.25
2018-06-13T15:37:41.388Z,5.00
2018-06-13T15:40:25.327Z,6.00
2018-06-13T15:43:01.211Z,6.50
2018-06-13T15:45:33.767Z,5.50
2018-06-13T15:48:06.325Z,5.50
2018-06-13T15:50:41.665Z,6.00
2018-06-13T15:53:25.116Z,7.25
2018-06-13T15:58:58.712Z,7.75
2018-06-13T16:01:29.511Z,5.00
2018-06-13T16:04:00.544Z,6.50
2018-06-13T16:06:33.208Z,5.00
2018-06-13T16:09:11.376Z,5.75
2018-06-13T16:11:46.593Z,5.00
2018-06-13T16:14:17.218Z,5.75
2018-06-13T16:16:52.325Z,5.00
2018-06-13T16:19:27.365Z,7.25
2018-06-13T16:21:58.048Z,6.00
2018-06-13T16:24:29.424Z,5.50
2018-06-13T16:27:03.490Z,5.50
2018-06-13T16:29:35.044Z,6.00
2018-06-13T16:32:27.368Z,6.00
2018-06-13T16:35:05.623Z,7.00
2018-06-13T16:37:36.921Z,6.00
2018-06-13T16:40:11.184Z,6.00
2018-06-13T16:42:47.025Z,7.00
2018-06-13T16:45:36.806Z,5.75
2018-06-13T16:48:11.826Z,8.00
2018-06-13T16:51:48.600Z,6.00
2018-06-13T16:57:11.711Z,6.00
2018-06-13T16:59:43.919Z,8.00
2018-06-13T17:02:34.140Z,8.00
2018-06-13T17:05:12.518Z,8.50
2018-06-13T17:07:53.858Z,7.75
2018-06-13T17:10:30.322Z,5.50
2018-06-13T17:13:47.121Z,7.50
2018-06-13T17:16:19.264Z,8.00
2018-06-13T17:18:55.754Z,7.75
2018-06-13T17:21:30.009Z,7.50
2018-06-13T17:24:01.819Z,7.25
2018-06-13T17:26:35.112Z,8.00
2018-06-13T17:29:07.316Z,7.00
2018-06-13T17:31:42.634Z,6.50
2018-06-13T17:34:17.372Z,5.50
2018-06-13T17:36:49.302Z,9.00
2018-06-13T17:39:25.656Z,8.00
2018-06-13T17:41:58.786Z,7.75
2018-06-13T17:47:19.883Z,7.00
2018-06-13T17:49:54.572Z,8.25
2018-06-13T17:52:30.179Z,7.00
2018-06-13T17:55:06.757Z,10.25
2018-06-13T17:57:42.269Z,8.00
2018-06-13T18:00:17.247Z,6.75
2018-06-13T18:02:56.367Z,7.75
2018-06-13T18:05:32.392Z,7.00
2018-06-13T18:08:27.927Z,6.00
2018-06-13T18:11:03.789Z,6.50
2018-06-13T18:13:42.580Z,5.75
2018-06-13T18:16:25.506Z,8.50
2018-06-13T18:19:00.764Z,8.00
2018-06-13T18:21:33.443Z,8.25
2018-06-13T18:24:23.888Z,8.25
2018-06-13T18:26:57.999Z,7.75
2018-06-13T18:29:31.343Z,7.75
2018-06-13T18:32:14.709Z,8.75
2018-06-13T18:34:46.846Z,7.00
2018-06-13T18:37:19.565Z,7.25
2018-06-13T18:39:51.174Z,8.25
2018-06-13T18:42:29.919Z,9.00
2018-06-13T18:45:09.500Z,7.00
2018-06-13T18:47:58.832Z,7.75
2018-06-13T18:50:38.152Z,8.25
2018-06-13T18:53:12.127Z,9.00
2018-06-13T18:56:18.137Z,8.75
2018-06-13T18:58:50.245Z,7.75
2018-06-13T19:01:31.426Z,7.00
2018-06-13T19:04:12.417Z,11.00
2018-06-13T19:06:49.364Z,8.25
2018-06-13T19:09:28.282Z,7.00
2018-06-13T19:12:00.223Z,7.00
2018-06-13T19:14:33.730Z,6.50
2018-06-13T19:17:11.974Z,8.00
2018-06-13T19:19:52.696Z,7.25
2018-06-13T19:22:25.654Z,7.00
2018-06-13T19:24:59.329Z,7.25
2018-06-13T19:30:18.286Z,9.75
2018-06-13T19:32:52.371Z,9.75
2018-06-13T19:35:26.866Z,8.75
2018-06-13T19:37:59.801Z,6.00
2018-06-13T19:40:32.511Z,8.75
2018-06-13T19:43:09.651Z,6.00
2018-06-13T19:45:51.031Z,6.00
2018-06-13T19:48:33.286Z,7.25
2018-06-13T19:51:05.209Z,7.50
2018-06-13T19:53:42.951Z,8.75
2018-06-13T19:56:15.730Z,9.50
2018-06-13T19:58:47.261Z,8.75
2018-06-13T20:01:29.828Z,9.25
2018-06-13T20:04:05.787Z,10.75
2018-06-13T20:06:44.773Z,10.00
2018-06-13T20:09:16.483Z,8.75
2018-06-13T20:11:52.960Z,7.75
2018-06-13T20:14:42.931Z,8.75
2018-06-13T20:17:22.941Z,10.00
2018-06-13T20:19:59.426Z,6.00
2018-06-13T20:22:49.763Z,8.75
2018-06-13T20:25:28.671Z,7.75
2018-06-13T20:28:06.577Z,6.00
2018-06-13T20:30:47.734Z,8.00
2018-06-13T20:33:27.586Z,7.25
2018-06-13T20:35:58.220Z,7.75
2018-06-13T20:38:33.622Z,9.75
2018-06-13T20:41:11.844Z,8.00
2018-06-13T20:43:43.669Z,8.25
2018-06-13T20:46:16.789Z,9.25
2018-06-13T20:48:52.546Z,6.75
2018-06-13T20:51:25.620Z,9.00
2018-06-13T20:54:08.301Z,9.00
2018-06-13T20:56:39.647Z,7.25
2018-06-13T20:59:13.708Z,6.00
2018-06-13T21:01:45.683Z,8.00
2018-06-13T21:04:17.450Z,9.00
2018-06-13T21:06:48.050Z,9.00
2018-06-13T21:09:21.262Z,8.00
2018-06-13T21:14:28.366Z,8.50
2018-06-13T21:17:02.521Z,10.00
2018-06-13T21:19:35.024Z,11.25
2018-06-13T21:22:06.253Z,13.50
2018-06-13T21:24:37.493Z,11.75
2018-06-13T21:27:16.374Z,12.00
2018-06-13T21:29:49.581Z,10.25
2018-06-13T21:32:22.531Z,13.50
2018-06-13T21:34:55.041Z,12.50
2018-06-13T21:37:26.036Z,11.25
2018-06-13T21:40:00.218Z,14.00
2018-06-13T21:42:35.351Z,15.00
2018-06-13T21:45:10.321Z,14.00
2018-06-13T21:47:47.987Z,13.25
2018-06-13T21:50:27.186Z,12.50
2018-06-13T21:53:00.393Z,11.50
2018-06-13T21:55:38.585Z,10.00
2018-06-13T21:58:14.853Z,13.25
2018-06-13T22:01:02.331Z,12.25
2018-06-13T22:03:35.190Z,11.00
2018-06-13T22:06:08.121Z,13.75
2018-06-13T22:08:41.155Z,13.50
2018-06-13T22:11:13.322Z,10.00
2018-06-13T22:13:52.084Z,9.00
2018-06-13T22:16:24.844Z,11.75
2018-06-13T22:18:58.543Z,11.75
2018-06-13T22:21:31.901Z,10.75
2018-06-13T22:24:08.097Z,10.00
2018-06-13T22:26:40.500Z,11.50
2018-06-13T22:29:16.863Z,14.25
2018-06-13T22:31:48.911Z,13.25
2018-06-13T22:34:20.501Z,14.50
2018-06-13T22:36:52.814Z,14.25
2018-06-13T22:39:23.814Z,12.25
2018-06-13T22:41:56.983Z,13.00
2018-06-13T22:44:27.419Z,11.25
2018-06-13T22:47:00.837Z,13.00
2018-06-13T22:49:31.334Z,12.75
2018-06-13T22:52:06.689Z,13.00
2018-06-13T22:54:37.264Z,11.00
2018-06-13T22:57:08.705Z,12.50
2018-06-13T22:59:40.144Z,12.00
2018-06-13T23:07:47.483Z,12.00
2018-06-13T23:10:26.402Z,12.50
2018-06-13T23:13:00.039Z,11.00
2018-06-13T23:15:32.515Z,11.00
2018-06-13T23:18:03.449Z,9.75
2018-06-13T23:20:33.837Z,12.25
2018-06-13T23:23:06.608Z,12.25
2018-06-13T23:25:36.998Z,11.00
2018-06-13T23:28:07.399Z,12.25
2018-06-13T23:30:37.929Z,12.00
2018-06-13T23:33:09.645Z,11.25
2018-06-13T23:35:41.715Z,10.25
2018-06-13T23:38:15.974Z,11.00
2018-06-13T23:40:47.347Z,11.25
2018-06-13T23:43:20.073Z,11.00
2018-06-13T23:45:53.585Z,9.75
2018-06-13T23:48:27.111Z,13.00
2018-06-13T23:50:58.332Z,12.25
2018-06-13T23:53:31.614Z,16.00
2018-06-13T23:56:02.661Z,15.75
2018-06-13T23:58:37.251Z,15.00
